Time;durP1;ratioP1;P1;durP2;ratioP2;P2;SDS_P1;SDS_P2;PMS_P1;PMS_P2;Temp;Humidity;BMP_temperature;BMP_pressure;BME280_temperature;BME280_humidity;BME280_pressure;Samples;Min_cycle;Max_cycle;Signal;HPM_P1;HPM_P2
2022/07/09 00:00:02;;;;;;;;;5.00;3.00;;;;;24.69;41.06;102415.03;4956630;28;46353;-78
2022/07/09 00:02:28;;;;;;;;;2.67;2.67;;;;;24.81;41.52;102438.41;4955418;28;45370;-77
2022/07/09 00:04:53;;;;;;;;;3.00;3.00;;;;;24.66;41.22;102417.78;4956873;28;45532;-77
2022/07/09 00:07:18;;;;;;;;;3.00;3.00;;;;;24.65;41.38;102411.47;4956810;28;45358;-77
2022/07/09 00:09:44;;;;;;;;;5.00;4.00;;;;;24.64;41.25;102417.81;4956108;28;46180;-77
2022/07/09 00:12:09;;;;;;;;;3.00;3.00;;;;;24.73;41.37;102427.63;4956773;28;45747;-77
2022/07/09 00:14:35;;;;;;;;;4.00;4.00;;;;;24.77;41.45;102436.66;4956693;28;45342;-78
2022/07/09 00:17:00;;;;;;;;;4.00;2.00;;;;;24.64;41.61;102409.66;4956431;28;45179;-77
2022/07/09 00:19:26;;;;;;;;;5.33;3.00;;;;;24.74;41.94;102436.66;4956230;28;45278;-77
2022/07/09 00:21:51;;;;;;;;;3.00;3.00;;;;;24.48;42.32;102398.06;4954653;28;45343;-77
2022/07/09 00:24:16;;;;;;;;;3.67;2.33;;;;;24.50;42.52;102403.50;4956396;28;45365;-77
2022/07/09 00:26:42;;;;;;;;;3.00;3.00;;;;;24.34;42.78;102372.94;4956256;28;45523;-78
2022/07/09 00:29:07;;;;;;;;;4.33;3.00;;;;;24.53;42.21;102408.88;4956370;28;46295;-77
2022/07/09 00:31:33;;;;;;;;;4.00;4.00;;;;;24.51;42.11;102415.22;4955062;28;45733;-78
2022/07/09 00:33:58;;;;;;;;;5.00;3.33;;;;;24.35;42.07;102384.69;4956210;28;45493;-77
2022/07/09 00:36:23;;;;;;;;;3.00;3.00;;;;;24.51;42.00;102420.66;4956463;28;45370;-77
2022/07/09 00:38:48;;;;;;;;;2.00;2.00;;;;;24.39;42.15;102398.19;4955445;28;46513;-77
2022/07/09 00:41:14;;;;;;;;;3.00;3.00;;;;;24.31;41.73;102386.53;4954892;28;45343;-77
2022/07/09 00:43:48;;;;;;;;;3.67;3.00;;;;;24.30;42.33;102392.88;4956231;28;45397;-78
2022/07/09 00:46:15;;;;;;;;;4.67;4.67;;;;;24.38;42.71;102409.97;4956502;28;45488;-77
2022/07/09 00:48:40;;;;;;;;;4.00;4.00;;;;;24.36;42.83;102410.88;4955956;28;45476;-78
2022/07/09 00:51:07;;;;;;;;;4.00;4.00;;;;;24.28;42.62;102405.56;4956032;28;45530;-77
2022/07/09 00:53:33;;;;;;;;;4.67;4.67;;;;;24.22;42.56;102401.13;4955733;28;45839;-77
2022/07/09 00:56:00;;;;;;;;;4.00;3.33;;;;;24.23;42.58;102402.00;4954700;28;45258;-78
2022/07/09 00:58:27;;;;;;;;;4.00;4.00;;;;;24.22;43.23;102400.19;4954789;28;45431;-77
2022/07/09 01:00:53;;;;;;;;;5.00;4.00;;;;;24.21;43.12;102407.44;4955612;28;45520;-77
2022/07/09 01:03:19;;;;;;;;;5.00;4.00;;;;;24.07;43.18;102380.50;4956149;28;45333;-77
2022/07/09 01:05:44;;;;;;;;;5.00;4.00;;;;;24.11;43.22;102397.63;4956094;28;45362;-78
2022/07/09 01:08:10;;;;;;;;;3.00;3.00;;;;;24.09;43.30;102394.94;4955416;28;46341;-78
2022/07/09 01:10:36;;;;;;;;;5.33;5.33;;;;;24.14;43.04;102403.91;4955561;28;45385;-77
2022/07/09 01:13:03;;;;;;;;;4.67;4.67;;;;;24.21;43.53;102406.56;4955845;28;45405;-78
2022/07/09 01:15:29;;;;;;;;;4.33;4.33;;;;;24.19;43.42;102406.59;4954667;28;45434;-78
2022/07/09 01:17:55;;;;;;;;;3.33;3.33;;;;;24.20;43.09;102402.94;4955513;28;45365;-77
2022/07/09 01:20:25;;;;;;;;;5.00;5.00;;;;;24.08;43.61;102379.59;4955788;28;45390;-78
2022/07/09 01:22:51;;;;;;;;;5.33;5.33;;;;;24.14;43.76;102394.88;4955297;28;45352;-77
2022/07/09 01:25:18;;;;;;;;;5.00;5.00;;;;;24.13;43.47;102399.44;4955787;28;45424;-77
2022/07/09 01:27:45;;;;;;;;;5.00;5.00;;;;;24.01;43.63;102371.53;4955628;28;45366;-77
2022/07/09 01:30:22;;;;;;;;;4.00;4.00;;;;;24.11;43.54;102394.94;4955662;28;45279;-78
2022/07/09 01:32:48;;;;;;;;;6.00;5.67;;;;;23.99;43.83;102379.69;4956277;28;45489;-77
2022/07/09 01:35:13;;;;;;;;;5.00;5.00;;;;;23.86;44.33;102357.19;4958670;28;45456;-77
2022/07/09 01:37:38;;;;;;;;;5.67;5.00;;;;;23.88;44.16;102360.84;4957404;28;47375;-78
2022/07/09 01:40:04;;;;;;;;;5.67;5.67;;;;;23.91;43.93;102368.94;4958626;28;45378;-78
2022/07/09 01:42:29;;;;;;;;;5.00;5.00;;;;;23.77;44.34;102349.19;4959172;28;45496;-77
2022/07/09 01:44:55;;;;;;;;;4.00;4.00;;;;;23.86;44.53;102353.59;4958699;28;45485;-78
2022/07/09 01:47:20;;;;;;;;;5.00;5.00;;;;;23.77;44.61;102351.91;4958585;28;45337;-77
2022/07/09 01:49:45;;;;;;;;;4.33;4.33;;;;;23.84;44.28;102375.31;4958342;28;45598;-76
2022/07/09 01:52:11;;;;;;;;;7.00;7.00;;;;;23.93;44.98;102385.19;4958651;28;45566;-77
2022/07/09 01:54:36;;;;;;;;;4.33;4.33;;;;;23.92;44.80;102376.16;4958465;28;45373;-77
2022/07/09 01:57:02;;;;;;;;;4.33;4.33;;;;;23.88;44.64;102376.19;4958215;28;45465;-77
2022/07/09 01:59:27;;;;;;;;;6.67;5.00;;;;;23.90;44.94;102388.81;4958478;28;45358;-77
2022/07/09 02:01:52;;;;;;;;;5.33;5.33;;;;;23.81;44.66;102364.47;4958520;28;45369;-77
2022/07/09 02:04:18;;;;;;;;;6.67;5.00;;;;;23.89;44.75;102380.72;4958409;28;45335;-77
2022/07/09 02:06:43;;;;;;;;;6.00;5.00;;;;;23.63;44.86;102333.06;4958468;28;45487;-77
2022/07/09 02:09:09;;;;;;;;;6.00;6.00;;;;;23.84;45.06;102367.19;4958078;28;45438;-77
2022/07/09 02:11:34;;;;;;;;;6.00;6.00;;;;;23.79;45.04;102361.78;4958471;28;45313;-77
2022/07/09 02:13:59;;;;;;;;;7.00;7.00;;;;;23.85;44.59;102362.63;4957942;28;47404;-77
2022/07/09 02:16:24;;;;;;;;;7.33;5.00;;;;;23.79;44.91;102360.91;4958350;28;46415;-77
2022/07/09 02:18:50;;;;;;;;;5.00;5.00;;;;;23.78;45.06;102361.81;4957467;28;45433;-77
2022/07/09 02:21:16;;;;;;;;;6.00;6.00;;;;;23.81;45.27;102362.69;4958119;28;45300;-77
2022/07/09 02:23:41;;;;;;;;;6.00;6.00;;;;;23.80;45.06;102357.28;4956888;28;45748;-77
2022/07/09 02:26:06;;;;;;;;;6.67;5.33;;;;;23.73;45.38;102342.88;4957837;28;45329;-77
2022/07/09 02:28:32;;;;;;;;;7.00;5.00;;;;;23.71;46.07;102332.97;4956807;28;45304;-77
2022/07/09 02:30:57;;;;;;;;;6.33;5.67;;;;;23.63;46.08;102333.97;4958091;28;45318;-77
2022/07/09 02:33:23;;;;;;;;;9.33;6.00;;;;;23.75;46.11;102351.00;4951757;28;45487;-76
2022/07/09 02:35:48;;;;;;;;;8.00;8.00;;;;;23.68;46.16;102344.75;4956305;28;45526;-77
2022/07/09 02:38:14;;;;;;;;;7.00;7.00;;;;;23.70;46.07;102340.22;4956106;28;45444;-77
2022/07/09 02:40:39;;;;;;;;;6.33;5.33;;;;;23.63;46.48;102333.97;4956044;28;45411;-77
2022/07/09 02:43:05;;;;;;;;;7.00;7.00;;;;;23.70;46.34;102342.94;4953914;28;45427;-76
2022/07/09 02:45:30;;;;;;;;;8.67;7.00;;;;;23.64;46.67;102338.47;4955005;28;48155;-77
2022/07/09 02:47:55;;;;;;;;;7.33;7.00;;;;;23.58;46.51;102327.69;4956432;28;45425;-79
2022/07/09 02:50:21;;;;;;;;;7.67;6.67;;;;;23.57;46.54;102322.28;4954203;28;45506;-78
2022/07/09 02:52:46;;;;;;;;;6.67;6.00;;;;;23.51;46.25;102309.69;4955781;28;45549;-82
2022/07/09 02:55:11;;;;;;;;;6.00;6.00;;;;;23.48;46.78;102315.16;4955210;28;46409;-77
2022/07/09 02:57:37;;;;;;;;;8.00;6.33;;;;;23.58;46.54;102341.22;4957008;28;45432;-77
2022/07/09 03:00:03;;;;;;;;;8.00;8.00;;;;;23.45;46.42;102332.31;4957329;28;45444;-77
2022/07/09 03:02:29;;;;;;;;;9.00;7.00;;;;;23.35;46.68;102317.09;4956535;28;45526;-77
2022/07/09 03:04:54;;;;;;;;;8.67;5.67;;;;;23.53;46.61;102347.59;4957157;28;46068;-77
2022/07/09 03:07:19;;;;;;;;;7.33;6.33;;;;;23.58;47.13;102345.75;4957549;28;45393;-77
2022/07/09 03:09:45;;;;;;;;;6.00;6.00;;;;;23.58;46.78;102345.75;4956242;28;45405;-77
2022/07/09 03:12:10;;;;;;;;;7.33;5.67;;;;;23.47;47.16;102329.59;4957356;28;45508;-77
2022/07/09 03:14:35;;;;;;;;;6.33;6.00;;;;;23.44;47.08;102335.06;4957286;28;45495;-77
2022/07/09 03:17:00;;;;;;;;;8.33;7.00;;;;;23.53;47.33;102350.31;4955569;28;45523;-77
2022/07/09 03:19:26;;;;;;;;;10.00;5.67;;;;;23.36;47.27;102331.53;4957500;28;45499;-77
2022/07/09 03:21:51;;;;;;;;;7.00;7.00;;;;;23.35;46.75;102327.03;4956019;28;45566;-77
2022/07/09 03:24:16;;;;;;;;;5.33;5.33;;;;;23.37;47.40;102339.63;4957186;28;45401;-77
2022/07/09 03:26:42;;;;;;;;;7.67;5.67;;;;;23.33;47.21;102343.28;4957154;28;45508;-77
2022/07/09 03:29:07;;;;;;;;;5.33;5.33;;;;;23.25;47.48;102342.47;4957062;28;45685;-77
2022/07/09 03:31:33;;;;;;;;;6.00;6.00;;;;;23.26;47.35;102347.88;4957159;28;45515;-77
2022/07/09 03:33:59;;;;;;;;;7.00;6.00;;;;;23.28;47.27;102364.97;4955422;28;47996;-77
2022/07/09 03:36:24;;;;;;;;;4.67;4.67;;;;;23.14;47.39;102338.97;4957114;28;45366;-77
2022/07/09 03:38:50;;;;;;;;;5.00;5.00;;;;;23.19;47.64;102359.66;4957124;28;45440;-77
2022/07/09 03:41:15;;;;;;;;;5.33;5.00;;;;;23.17;48.07;102353.34;4955587;28;45556;-77
2022/07/09 03:43:40;;;;;;;;;5.67;5.67;;;;;23.08;47.69;102334.41;4957030;28;45508;-78
2022/07/09 03:46:06;;;;;;;;;7.00;7.00;;;;;23.19;47.68;102356.03;4956070;28;51278;-77
2022/07/09 03:48:31;;;;;;;;;6.50;6.50;;;;;23.23;47.34;102358.69;4955859;28;45377;-77
2022/07/09 03:50:56;;;;;;;;;9.00;6.67;;;;;22.95;47.42;102311.97;4956910;28;45676;-78
2022/07/09 03:53:22;;;;;;;;;7.33;6.33;;;;;23.19;47.62;102361.44;4956644;28;45348;-77
2022/07/09 03:55:47;;;;;;;;;9.00;8.00;;;;;23.10;47.88;102351.56;4956303;28;45267;-78
2022/07/09 03:58:13;;;;;;;;;6.00;6.00;;;;;23.04;47.97;102351.63;4956891;28;45758;-78
2022/07/09 04:00:38;;;;;;;;;8.00;6.00;;;;;23.12;47.96;102363.31;4956469;28;45413;-77
2022/07/09 04:03:03;;;;;;;;;8.67;6.67;;;;;23.10;47.82;102367.81;4956509;28;45370;-77
2022/07/09 04:05:28;;;;;;;;;6.67;5.33;;;;;23.17;48.31;102374.13;4955412;28;45293;-78
2022/07/09 04:07:54;;;;;;;;;6.67;6.33;;;;;23.14;48.03;102376.84;4956781;28;45275;-77
2022/07/09 04:10:19;;;;;;;;;6.00;6.00;;;;;23.12;48.38;102366.00;4956537;28;45572;-77
2022/07/09 04:12:44;;;;;;;;;4.67;4.67;;;;;23.10;48.16;102374.13;4956571;28;46702;-77
2022/07/09 04:15:10;;;;;;;;;8.33;8.00;;;;;23.03;47.89;102382.31;4954847;28;45729;-77
2022/07/09 04:17:36;;;;;;;;;11.00;10.00;;;;;23.03;48.15;102382.31;4955254;28;45487;-77
2022/07/09 04:20:01;;;;;;;;;9.67;9.67;;;;;22.91;47.79;102362.53;4956227;28;45302;-77
2022/07/09 04:22:26;;;;;;;;;10.00;9.00;;;;;22.94;47.90;102376.03;4956318;28;46270;-77
2022/07/09 04:24:52;;;;;;;;;7.67;7.67;;;;;22.87;47.73;102370.66;4956582;28;45379;-77
2022/07/09 04:27:17;;;;;;;;;10.00;9.00;;;;;22.98;47.72;102389.53;4956234;28;45323;-77
2022/07/09 04:29:42;;;;;;;;;8.67;8.00;;;;;22.90;48.11;102376.97;4954854;28;45341;-77
2022/07/09 04:32:08;;;;;;;;;8.67;8.67;;;;;22.90;47.91;102376.97;4955945;28;45501;-77
2022/07/09 04:34:33;;;;;;;;;8.00;8.00;;;;;22.95;47.80;102382.34;4954876;28;45416;-77
2022/07/09 04:36:59;;;;;;;;;8.00;8.00;;;;;22.87;47.92;102363.47;4956407;28;45417;-77
2022/07/09 04:39:24;;;;;;;;;9.33;9.33;;;;;22.90;47.55;102365.25;4956044;28;45426;-77
2022/07/09 04:41:50;;;;;;;;;9.00;9.00;;;;;22.89;47.61;102375.16;4956126;28;46394;-77
2022/07/09 04:44:16;;;;;;;;;8.33;7.33;;;;;22.86;47.75;102380.59;4956051;28;45822;-77
2022/07/09 04:46:43;;;;;;;;;13.00;11.67;;;;;22.86;47.73;102386.00;4955045;28;45738;-77
2022/07/09 04:49:08;;;;;;;;;9.33;9.00;;;;;22.81;47.86;102377.00;4956107;28;45442;-77
2022/07/09 04:51:33;;;;;;;;;11.67;11.67;;;;;22.73;47.96;102365.38;4956049;28;45447;-77
2022/07/09 04:53:59;;;;;;;;;8.67;8.67;;;;;22.75;47.85;102366.25;4955663;28;45451;-77
2022/07/09 04:56:24;;;;;;;;;8.67;8.67;;;;;22.79;48.14;102378.84;4954889;28;45485;-77
2022/07/09 04:58:52;;;;;;;;;12.67;11.33;;;;;22.72;47.88;102367.16;4955844;28;45449;-77
2022/07/09 05:01:19;;;;;;;;;7.00;6.00;;;;;22.82;48.30;102383.34;4955804;28;46489;-76
2022/07/09 05:03:46;;;;;;;;;12.33;9.00;;;;;22.67;48.10;102357.28;4955936;28;45366;-76
2022/07/09 05:06:15;;;;;;;;;8.00;8.00;;;;;22.76;47.94;102376.16;4954527;28;45497;-77
2022/07/09 05:08:40;;;;;;;;;9.00;8.00;;;;;22.78;48.03;102382.44;4957989;28;45485;-76
2022/07/09 05:11:06;;;;;;;;;9.67;9.00;;;;;22.73;48.33;102378.91;4958867;28;46278;-72
2022/07/09 05:13:31;;;;;;;;;9.00;8.33;;;;;22.64;48.36;102371.72;4958835;28;45464;-72
2022/07/09 05:15:57;;;;;;;;;10.00;10.00;;;;;22.74;47.98;102387.00;4959249;28;45490;-72
2022/07/09 05:18:22;;;;;;;;;9.00;9.00;;;;;22.73;48.17;102384.31;4959178;28;45503;-71
2022/07/09 05:20:47;;;;;;;;;6.67;5.33;;;;;22.65;48.33;102376.22;4959041;28;45519;-71
2022/07/09 05:23:12;;;;;;;;;11.33;10.00;;;;;22.70;48.20;102374.41;4958828;28;45528;-71
2022/07/09 05:25:38;;;;;;;;;11.00;10.67;;;;;22.77;47.87;102386.09;4958077;28;45350;-69
2022/07/09 05:28:03;;;;;;;;;13.00;10.00;;;;;22.75;48.19;102374.34;4957601;28;46963;-71
2022/07/09 05:30:29;;;;;;;;;10.33;10.33;;;;;22.81;47.95;102377.00;4958335;28;45520;-71
2022/07/09 05:32:54;;;;;;;;;11.00;11.00;;;;;22.86;48.11;102382.41;4958754;28;45430;-71
2022/07/09 05:35:19;;;;;;;;;13.33;13.33;;;;;22.87;47.69;102376.06;4958094;28;45552;-70
2022/07/09 05:37:45;;;;;;;;;9.33;8.33;;;;;22.96;47.98;102387.75;4958296;28;45579;-71
2022/07/09 05:40:11;;;;;;;;;12.33;11.00;;;;;23.04;47.85;102389.53;4956789;28;46295;-69
2022/07/09 05:42:37;;;;;;;;;10.67;9.33;;;;;23.02;47.48;102386.81;4957933;28;45512;-69
2022/07/09 05:45:03;;;;;;;;;11.00;10.00;;;;;23.07;47.71;102392.19;4958491;28;45440;-68
2022/07/09 05:47:28;;;;;;;;;10.33;9.33;;;;;23.09;47.47;102393.06;4957757;28;45489;-72
2022/07/09 05:49:53;;;;;;;;;10.00;9.00;;;;;23.10;47.55;102392.19;4958387;28;53915;-71
2022/07/09 05:52:19;;;;;;;;;10.33;10.33;;;;;23.12;47.72;102388.59;4957710;28;45377;-70
2022/07/09 05:54:44;;;;;;;;;8.33;8.33;;;;;23.19;47.53;102384.03;4939161;28;45362;-71
2022/07/09 05:57:09;;;;;;;;;9.33;9.33;;;;;23.20;47.36;102374.97;4938999;28;45445;-71
2022/07/09 05:59:35;;;;;;;;;9.00;9.00;;;;;23.23;47.53;102384.88;4943185;28;47973;-71
2022/07/09 06:02:02;;;;;;;;;10.00;10.00;;;;;23.27;47.57;102382.13;4939265;28;45416;-70
2022/07/09 06:04:28;;;;;;;;;8.67;8.67;;;;;23.24;47.17;102373.16;4954940;28;45382;-71
2022/07/09 06:06:53;;;;;;;;;9.33;9.00;;;;;23.28;47.15;102380.34;4958050;28;45330;-71
2022/07/09 06:09:19;;;;;;;;;10.00;10.00;;;;;23.34;46.84;102388.41;4957401;28;46065;-69
2022/07/09 06:11:44;;;;;;;;;8.67;8.67;;;;;23.38;46.95;102390.19;4957365;28;45468;-69
2022/07/09 06:14:09;;;;;;;;;14.00;12.67;;;;;23.41;47.33;102381.13;4957164;28;45390;-67
2022/07/09 06:16:35;;;;;;;;;10.67;10.67;;;;;23.40;46.81;102393.78;4957323;28;45426;-70
2022/07/09 06:19:00;;;;;;;;;11.00;11.00;;;;;23.37;46.77;102380.25;4957679;28;46203;-68
2022/07/09 06:21:25;;;;;;;;;13.00;10.33;;;;;23.40;47.11;102377.53;4957751;28;45412;-68
2022/07/09 06:23:51;;;;;;;;;10.67;10.00;;;;;23.53;47.31;102383.75;4958403;28;45338;-68
2022/07/09 06:26:16;;;;;;;;;11.00;11.00;;;;;23.54;46.86;102382.81;4948377;28;45624;-69
2022/07/09 06:28:41;;;;;;;;;13.67;11.67;;;;;23.59;46.46;102389.09;4938191;28;46248;-68
2022/07/09 06:31:07;;;;;;;;;9.67;9.00;;;;;23.47;46.38;102378.34;4938707;28;45243;-70
2022/07/09 06:33:32;;;;;;;;;11.00;10.67;;;;;23.62;46.45;102385.47;4954927;28;45459;-71
2022/07/09 06:35:57;;;;;;;;;11.00;10.00;;;;;23.61;46.59;102378.22;4958113;28;45337;-72
2022/07/09 06:38:23;;;;;;;;;9.00;9.00;;;;;23.72;46.59;102386.28;4955821;28;46192;-69
2022/07/09 06:40:48;;;;;;;;;10.33;10.33;;;;;23.68;46.68;102376.38;4956918;28;45460;-72
2022/07/09 06:43:13;;;;;;;;;11.33;10.67;;;;;23.71;46.13;102376.34;4957199;28;45447;-72
2022/07/09 06:45:39;;;;;;;;;9.00;8.33;;;;;23.79;46.54;102378.03;4957526;28;45479;-70
2022/07/09 06:48:04;;;;;;;;;10.33;9.00;;;;;23.80;46.52;102371.72;4956733;28;45371;-69
2022/07/09 06:50:30;;;;;;;;;9.33;9.33;;;;;23.89;46.32;102387.00;4957399;28;45366;-71
2022/07/09 06:52:55;;;;;;;;;8.00;8.00;;;;;23.79;46.00;102369.03;4972053;28;45235;-70
2022/07/09 06:55:21;;;;;;;;;9.67;9.67;;;;;23.97;45.99;102386.94;4955887;28;45824;-70
2022/07/09 06:57:46;;;;;;;;;9.00;9.00;;;;;23.91;46.38;102368.00;4955069;28;45350;-68
2022/07/09 07:00:12;;;;;;;;;9.00;9.00;;;;;23.91;45.90;102382.50;4967982;28;45744;-70
2022/07/09 07:02:38;;;;;;;;;8.00;8.00;;;;;24.03;46.28;102385.97;4946246;28;45419;-71
2022/07/09 07:05:04;;;;;;;;;10.33;10.00;;;;;23.93;46.17;102369.81;4955615;28;45354;-70
2022/07/09 07:07:30;;;;;;;;;12.00;9.00;;;;;23.96;46.14;102366.16;4958018;28;46662;-75
2022/07/09 07:09:55;;;;;;;;;10.67;9.00;;;;;24.00;46.42;102375.19;4953384;28;45444;-70
2022/07/09 07:12:20;;;;;;;;;10.00;10.00;;;;;24.04;46.21;102374.22;4975752;28;45366;-70
2022/07/09 07:14:45;;;;;;;;;11.00;7.00;;;;;23.97;46.52;102365.25;4956274;28;45711;-70
2022/07/09 07:17:11;;;;;;;;;9.33;8.00;;;;;24.16;46.49;102376.75;4963912;28;45502;-75
2022/07/09 07:19:36;;;;;;;;;7.33;7.33;;;;;24.18;46.44;102376.75;4968839;28;45602;-75
2022/07/09 07:22:01;;;;;;;;;11.00;9.00;;;;;24.20;45.80;102373.09;4967833;28;45407;-75
2022/07/09 07:24:27;;;;;;;;;9.00;9.00;;;;;24.20;45.87;102362.25;4962666;28;45433;-76
2022/07/09 07:26:53;;;;;;;;;8.00;8.00;;;;;24.26;46.11;102372.13;4964321;28;46094;-75
2022/07/09 07:29:19;;;;;;;;;9.67;8.00;;;;;24.29;46.04;102373.00;4961226;28;45470;-75
2022/07/09 07:31:44;;;;;;;;;10.67;10.00;;;;;24.19;45.11;102357.78;4964290;28;45530;-74
2022/07/09 07:34:09;;;;;;;;;9.33;8.00;;;;;24.28;45.18;102368.50;4964194;28;45385;-74
2022/07/09 07:36:35;;;;;;;;;9.00;9.00;;;;;24.37;45.37;102375.59;4959598;28;46153;-75
2022/07/09 07:39:00;;;;;;;;;8.00;8.00;;;;;24.28;45.38;102348.63;4960658;28;45516;-74
2022/07/09 07:41:26;;;;;;;;;10.33;10.33;;;;;24.35;45.33;102357.56;4954667;28;45643;-74
2022/07/09 07:43:51;;;;;;;;;8.00;8.00;;;;;24.49;45.62;102380.88;4946313;28;45452;-74
2022/07/09 07:46:16;;;;;;;;;7.67;7.67;;;;;24.47;45.46;102371.88;4950350;28;46017;-74
2022/07/09 07:48:42;;;;;;;;;10.33;8.00;;;;;24.55;44.65;102376.28;4938142;28;45327;-75
2022/07/09 07:51:08;;;;;;;;;7.00;6.00;;;;;24.60;44.74;102386.19;4945877;28;45490;-75
2022/07/09 07:53:35;;;;;;;;;9.50;8.25;;;;;24.62;45.07;102378.91;4913314;28;1163376;-75
2022/07/09 07:56:01;;;;;;;;;11.33;11.00;;;;;24.55;44.78;102369.03;4956373;28;46410;-74
2022/07/09 07:58:26;;;;;;;;;9.67;6.00;;;;;24.56;43.92;102368.13;4956495;28;45397;-74
2022/07/09 08:00:53;;;;;;;;;6.00;6.00;;;;;24.62;43.81;102369.88;4956285;28;45290;-75
2022/07/09 08:03:18;;;;;;;;;8.00;8.00;;;;;24.59;44.43;102362.66;4956764;28;45466;-74
2022/07/09 08:05:44;;;;;;;;;6.33;6.33;;;;;24.66;43.96;102367.09;4955328;28;46524;-75
2022/07/09 08:08:09;;;;;;;;;6.33;6.33;;;;;24.61;44.66;102339.16;4955539;28;45492;-75
2022/07/09 08:10:34;;;;;;;;;10.00;7.00;;;;;24.76;44.14;102350.69;4955797;28;45485;-75
2022/07/09 08:13:00;;;;;;;;;8.00;8.00;;;;;24.91;44.23;102374.91;4955768;28;45626;-74
2022/07/09 08:15:25;;;;;;;;;5.67;5.00;;;;;24.93;43.84;102378.47;4954380;28;46222;-75
2022/07/09 08:17:50;;;;;;;;;5.67;5.67;;;;;24.89;43.57;102356.84;4954142;28;45456;-74
2022/07/09 08:20:16;;;;;;;;;11.00;7.00;;;;;24.80;43.60;102350.63;4955557;28;45547;-74
2022/07/09 08:22:41;;;;;;;;;6.33;6.33;;;;;24.91;43.72;102352.25;4955175;28;45582;-74
2022/07/09 08:25:07;;;;;;;;;4.33;4.00;;;;;24.92;42.87;102357.69;4955370;28;46291;-75
2022/07/09 08:27:32;;;;;;;;;4.33;4.33;;;;;24.94;42.74;102346.81;4954304;28;45462;-74
2022/07/09 08:29:58;;;;;;;;;7.00;6.00;;;;;25.08;43.10;102357.44;4955413;28;45537;-74
2022/07/09 08:32:23;;;;;;;;;6.67;6.00;;;;;25.02;42.55;102344.88;4953216;28;45455;-74
2022/07/09 08:34:48;;;;;;;;;6.00;5.00;;;;;25.17;42.94;102346.41;4954960;28;45495;-74
2022/07/09 08:37:14;;;;;;;;;5.00;5.00;;;;;25.15;42.15;102351.88;4955154;28;45513;-74
2022/07/09 08:39:39;;;;;;;;;6.00;6.00;;;;;25.28;41.62;102354.38;4955960;28;45510;-74
2022/07/09 08:42:10;;;;;;;;;5.00;5.00;;;;;25.29;41.80;102351.66;4956913;28;45463;-74
2022/07/09 08:44:38;;;;;;;;;6.00;6.00;;;;;25.31;41.71;102352.50;4946652;28;45449;-75
2022/07/09 08:47:04;;;;;;;;;7.00;7.00;;;;;25.29;40.76;102343.50;4957516;28;45463;-74
2022/07/09 08:49:31;;;;;;;;;4.00;4.00;;;;;25.28;41.17;102338.97;4944528;28;45414;-74
2022/07/09 08:51:57;;;;;;;;;6.33;4.00;;;;;25.37;40.22;102350.66;4939678;28;45653;-75
2022/07/09 08:54:23;;;;;;;;;5.00;5.00;;;;;25.38;40.55;102337.03;4956400;28;45453;-74
2022/07/09 08:56:52;;;;;;;;;5.00;4.00;;;;;25.43;40.45;102340.56;4959605;28;45395;-74
2022/07/09 08:59:18;;;;;;;;;5.00;5.00;;;;;25.46;41.01;102347.78;4947485;28;45335;-74
2022/07/09 09:01:43;;;;;;;;;6.00;6.00;;;;;25.47;41.06;102342.31;4954637;28;45443;-74
2022/07/09 09:04:09;;;;;;;;;5.67;5.67;;;;;25.55;41.12;102342.16;4956930;28;46223;-74
2022/07/09 09:06:39;;;;;;;;;5.00;4.00;;;;;25.53;40.90;102344.03;4956328;28;45538;-74
2022/07/09 09:09:08;;;;;;;;;5.33;5.00;;;;;25.52;40.65;102331.34;4957631;28;45630;-74
2022/07/09 09:11:36;;;;;;;;;3.00;3.00;;;;;25.62;40.49;102334.78;4958138;28;45533;-74
2022/07/09 09:14:02;;;;;;;;;6.00;5.00;;;;;25.53;40.58;102311.41;4958507;28;45488;-75
2022/07/09 09:16:27;;;;;;;;;3.00;3.00;;;;;25.57;40.26;102321.31;4944765;28;45495;-76
2022/07/09 09:18:53;;;;;;;;;9.00;7.67;;;;;25.64;40.08;102320.25;4952819;28;45393;-75
2022/07/09 09:21:25;;;;;;;;;5.00;5.00;;;;;25.72;40.26;102316.47;4958067;28;45473;-75
2022/07/09 09:23:53;;;;;;;;;5.00;5.00;;;;;25.68;40.08;102308.41;4950221;28;48023;-76
2022/07/09 09:26:24;;;;;;;;;5.00;5.00;;;;;25.79;39.31;102318.16;4951185;28;45397;-74
2022/07/09 09:28:49;;;;;;;;;5.33;4.00;;;;;25.90;39.41;102326.09;4957668;28;45433;-76
2022/07/09 09:31:25;;;;;;;;;4.67;4.67;;;;;25.84;39.14;102314.41;4948380;28;45560;-83
2022/07/09 09:33:52;;;;;;;;;4.00;4.00;;;;;25.88;39.05;102319.78;4957750;28;46316;-76
2022/07/09 09:36:39;;;;;;;;;4.00;4.00;;;;;25.96;39.26;102324.16;4951116;28;45432;-74
2022/07/09 09:39:12;;;;;;;;;5.00;4.00;;;;;26.00;39.13;102324.97;4939498;28;45319;-74
2022/07/09 09:41:39;;;;;;;;;4.00;4.00;;;;;26.06;38.71;102333.06;4939474;28;45568;-74
2022/07/09 09:44:10;;;;;;;;;4.00;4.00;;;;;26.09;38.59;102322.13;4938098;28;46483;-74
2022/07/09 09:46:40;;;;;;;;;6.33;6.00;;;;;26.11;38.47;102327.50;4938049;28;45511;-74
2022/07/09 09:49:10;;;;;;;;;4.33;4.33;;;;;26.13;39.13;102331.09;4938770;28;45350;-73
2022/07/09 09:51:41;;;;;;;;;5.00;5.00;;;;;26.18;39.23;102334.59;4937156;28;45470;-74
2022/07/09 09:54:08;;;;;;;;;4.00;4.00;;;;;26.18;39.48;102319.16;4933654;28;47087;-74
2022/07/09 09:56:35;;;;;;;;;5.33;5.00;;;;;26.28;39.37;102330.75;4936509;28;45845;-75
2022/07/09 09:59:01;;;;;;;;;6.00;5.67;;;;;26.32;38.32;102315.28;4936682;28;45597;-74
2022/07/09 10:01:27;;;;;;;;;5.33;5.00;;;;;26.26;38.60;102310.84;4936303;28;45361;-75
2022/07/09 10:03:53;;;;;;;;;6.00;5.00;;;;;26.27;38.20;102307.22;4937370;28;46573;-74
2022/07/09 10:06:19;;;;;;;;;4.00;4.00;;;;;26.50;38.25;102336.63;4938122;28;46030;-74
2022/07/09 10:08:44;;;;;;;;;6.33;5.00;;;;;26.49;38.43;102315.78;4939081;28;45331;-75
2022/07/09 10:11:10;;;;;;;;;5.33;5.33;;;;;26.60;38.40;102326.41;4957682;28;45398;-74
2022/07/09 10:13:38;;;;;;;;;6.00;6.00;;;;;26.66;37.94;102320.81;4956798;28;48232;-74
2022/07/09 10:16:03;;;;;;;;;6.00;6.00;;;;;26.58;38.11;102306.53;4956727;28;45987;-74
2022/07/09 10:18:29;;;;;;;;;4.67;4.67;;;;;26.65;38.50;102319.03;4957858;28;45453;-74
2022/07/09 10:20:57;;;;;;;;;5.67;5.67;;;;;26.65;38.52;102301.81;4957752;28;45437;-74
2022/07/09 10:23:24;;;;;;;;;4.00;4.00;;;;;26.70;38.27;102299.91;4957655;28;46343;-74
2022/07/09 10:25:52;;;;;;;;;5.00;5.00;;;;;26.71;38.26;102296.25;4957995;28;45421;-75
2022/07/09 10:28:19;;;;;;;;;5.33;5.33;;;;;26.91;38.06;102297.59;4957748;28;45508;-75
2022/07/09 10:30:45;;;;;;;;;4.67;4.67;;;;;27.02;37.97;102300.94;4957968;28;45300;-74
2022/07/09 10:33:22;;;;;;;;;6.00;3.67;;;;;27.12;37.53;102309.78;4957098;28;45660;-75
2022/07/09 10:35:52;;;;;;;;;5.00;5.00;;;;;27.06;36.78;102283.59;4957911;28;45532;-74
2022/07/09 10:38:20;;;;;;;;;3.00;3.00;;;;;27.24;37.71;102305.81;4957669;28;45374;-74
2022/07/09 10:40:58;;;;;;;;;4.00;4.00;;;;;27.15;36.78;102298.78;4957566;28;45330;-75
2022/07/09 10:43:47;;;;;;;;;5.67;5.67;;;;;27.29;36.92;102303.88;4957262;28;46310;-75
2022/07/09 10:46:14;;;;;;;;;3.67;3.67;;;;;27.25;36.55;102288.56;4956934;28;45266;-75
2022/07/09 10:48:40;;;;;;;;;4.33;4.33;;;;;27.31;36.99;102292.00;4957875;28;45385;-77
2022/07/09 10:51:05;;;;;;;;;3.00;3.00;;;;;27.45;36.47;102288.03;4956371;28;45555;-74
2022/07/09 10:53:31;;;;;;;;;5.00;3.00;;;;;27.40;36.29;102271.81;4954197;28;45484;-75
2022/07/09 10:55:56;;;;;;;;;4.67;4.67;;;;;27.51;36.29;102277.84;4955796;28;46271;-77
2022/07/09 10:58:24;;;;;;;;;4.67;4.67;;;;;27.48;36.18;102269.78;4956929;28;45463;-77
2022/07/09 11:01:00;;;;;;;;;6.33;6.33;;;;;27.56;36.56;102269.53;4943830;28;45452;-77
2022/07/09 11:03:31;;;;;;;;;3.67;3.67;;;;;27.51;36.44;102255.13;4956183;28;45492;-77
2022/07/09 11:05:57;;;;;;;;;5.00;5.00;;;;;27.43;36.88;102227.22;4950798;28;45505;-77
2022/07/09 11:08:23;;;;;;;;;5.33;4.00;;;;;27.70;35.82;102266.44;4939022;28;45429;-77
2022/07/09 11:10:48;;;;;;;;;4.33;4.33;;;;;27.71;35.38;102265.50;4959297;28;45511;-75
2022/07/09 11:13:14;;;;;;;;;5.00;5.00;;;;;27.65;35.41;102246.56;4955310;28;46800;-75
2022/07/09 11:15:39;;;;;;;;;3.67;3.67;;;;;27.66;34.92;102246.53;4956017;28;45388;-76